createdAt,value
2024-02-19T00:01:34.939Z,100642.03
2024-02-19T00:04:04.771Z,100667.25
2024-02-19T00:06:32.436Z,100661.41
2024-02-19T00:09:00.065Z,100662.88
2024-02-19T00:11:27.664Z,100654.09
2024-02-19T00:13:57.891Z,100661.53
2024-02-19T00:16:25.480Z,100665.94
2024-02-19T00:18:55.730Z,100663.41
2024-02-19T00:21:23.506Z,100676.91
2024-02-19T00:23:52.166Z,100679.56
2024-02-19T00:26:19.816Z,100678.19
2024-02-19T00:28:47.504Z,100677.69
2024-02-19T00:31:15.119Z,100681.16
2024-02-19T00:33:42.984Z,100679.94
2024-02-19T00:36:12.085Z,100672.84
2024-02-19T00:38:39.658Z,100659.97
2024-02-19T00:41:07.228Z,100659.75
2024-02-19T00:43:34.822Z,100679.03
2024-02-19T00:46:02.492Z,100671.53
2024-02-19T00:48:30.123Z,100671.63
2024-02-19T00:50:57.703Z,100667.19
2024-02-19T00:53:26.626Z,100659.09
2024-02-19T00:55:54.750Z,100657.34
2024-02-19T00:58:22.395Z,100665.84
2024-02-19T01:00:50.777Z,100657.16
2024-02-19T01:03:18.595Z,100652.09
2024-02-19T01:05:46.387Z,100669.28
2024-02-19T01:08:14.049Z,100656.47
2024-02-19T01:10:43.103Z,100663.41
2024-02-19T01:13:10.860Z,100656.44
2024-02-19T01:15:38.569Z,100657.00
2024-02-19T01:18:06.614Z,100650.50
2024-02-19T01:20:34.251Z,100651.88
2024-02-19T01:23:01.832Z,100653.72
2024-02-19T01:25:29.424Z,100652.28
2024-02-19T01:27:58.811Z,100656.19
2024-02-19T01:30:27.817Z,100654.88
2024-02-19T01:32:55.412Z,100670.69
2024-02-19T01:35:23.399Z,100674.06
2024-02-19T01:37:51.029Z,100667.41
2024-02-19T01:40:18.941Z,100681.25
2024-02-19T01:42:47.830Z,100679.25
2024-02-19T01:45:27.374Z,100682.00
2024-02-19T01:47:56.068Z,100676.47
2024-02-19T01:50:24.831Z,100679.53
2024-02-19T01:52:53.576Z,100675.19
2024-02-19T01:55:22.346Z,100683.16
2024-02-19T01:57:52.930Z,100678.91
2024-02-19T02:00:21.466Z,100678.06
2024-02-19T02:02:50.732Z,100670.28
2024-02-19T02:05:18.369Z,100683.16
2024-02-19T02:07:46.546Z,100679.72
2024-02-19T02:10:14.376Z,100677.97
2024-02-19T02:12:42.171Z,100669.44
2024-02-19T02:15:10.548Z,100679.53
2024-02-19T02:17:38.207Z,100683.53
2024-02-19T02:20:09.415Z,100677.47
2024-02-19T02:22:37.276Z,100686.88
2024-02-19T02:25:05.624Z,100672.59
2024-02-19T02:27:34.750Z,100676.94
2024-02-19T02:30:04.124Z,100678.22
2024-02-19T02:32:34.712Z,100669.72
2024-02-19T02:35:02.650Z,100665.03
2024-02-19T02:37:31.621Z,100667.44
2024-02-19T02:39:59.247Z,100670.75
2024-02-19T02:42:26.912Z,100660.50
2024-02-19T02:44:55.883Z,100658.41
2024-02-19T02:51:35.510Z,100660.72
2024-02-19T02:54:03.296Z,100660.44
2024-02-19T02:56:31.578Z,100668.44
2024-02-19T02:58:59.142Z,100662.94
2024-02-19T03:01:30.065Z,100676.91
2024-02-19T03:03:58.060Z,100672.19
2024-02-19T03:06:26.741Z,100674.16
2024-02-19T03:08:54.617Z,100668.84
2024-02-19T03:11:22.992Z,100657.72
2024-02-19T03:13:51.166Z,100655.44
2024-02-19T03:16:18.841Z,100662.38
2024-02-19T03:18:48.099Z,100669.16
2024-02-19T03:21:16.986Z,100665.72
2024-02-19T03:23:51.231Z,100668.59
2024-02-19T03:26:34.788Z,100666.44
2024-02-19T03:29:12.637Z,100660.34
2024-02-19T03:31:40.386Z,100661.75
2024-02-19T03:34:09.706Z,100662.38
2024-02-19T03:36:37.715Z,100653.75
2024-02-19T03:39:06.002Z,100659.41
2024-02-19T03:41:34.242Z,100639.41
2024-02-19T03:44:01.823Z,100647.06
2024-02-19T03:46:29.399Z,100659.72
2024-02-19T03:48:57.223Z,100658.88
2024-02-19T03:51:26.291Z,100671.34
2024-02-19T03:53:55.468Z,100671.94
2024-02-19T03:56:23.057Z,100678.03
2024-02-19T03:58:51.186Z,100683.25
2024-02-19T04:01:18.899Z,100677.63
2024-02-19T04:03:46.648Z,100681.22
2024-02-19T04:06:14.333Z,100678.59
2024-02-19T04:08:43.261Z,100679.44
2024-02-19T04:11:10.854Z,100674.97
2024-02-19T04:13:38.505Z,100681.94
2024-02-19T04:16:10.042Z,100691.84
2024-02-19T04:18:37.843Z,100697.78
2024-02-19T04:21:05.773Z,100698.69
2024-02-19T04:23:33.373Z,100701.66
2024-02-19T04:26:02.488Z,100701.94
2024-02-19T04:28:30.218Z,100710.59
2024-02-19T04:30:57.813Z,100703.72
2024-02-19T04:33:25.474Z,100702.78
2024-02-19T04:35:53.072Z,100697.22
2024-02-19T04:38:21.150Z,100697.13
2024-02-19T04:40:48.770Z,100697.56
2024-02-19T04:43:17.793Z,100701.84
2024-02-19T04:45:45.396Z,100694.25
2024-02-19T04:48:12.999Z,100705.88
2024-02-19T04:50:40.640Z,100693.34
2024-02-19T04:53:08.296Z,100702.09
2024-02-19T04:55:36.213Z,100698.19
2024-02-19T04:58:03.918Z,100702.34
2024-02-19T05:00:35.081Z,100710.78
2024-02-19T05:03:03.420Z,100691.19
2024-02-19T05:05:31.022Z,100701.31
2024-02-19T05:07:58.680Z,100696.13
2024-02-19T05:10:26.300Z,100709.44
2024-02-19T05:12:53.970Z,100713.94
2024-02-19T05:15:21.576Z,100716.53
2024-02-19T05:17:50.653Z,100712.81
2024-02-19T05:20:18.869Z,100721.19
2024-02-19T05:22:48.157Z,100729.88
2024-02-19T05:25:16.055Z,100724.41
2024-02-19T05:27:45.171Z,100723.69
2024-02-19T05:30:14.257Z,100718.28
2024-02-19T05:32:41.922Z,100735.06
2024-02-19T05:35:11.756Z,100726.69
2024-02-19T05:37:39.366Z,100732.84
2024-02-19T05:40:08.456Z,100748.41
2024-02-19T05:42:36.082Z,100748.63
2024-02-19T05:45:03.919Z,100752.72
2024-02-19T05:47:31.561Z,100752.28
2024-02-19T05:49:59.302Z,100754.13
2024-02-19T05:52:28.247Z,100762.22
2024-02-19T05:54:57.464Z,100766.63
2024-02-19T05:57:25.368Z,100768.94
2024-02-19T05:59:54.598Z,100770.72
2024-02-19T06:02:23.540Z,100783.94
2024-02-19T06:04:51.660Z,100784.22
2024-02-19T06:07:19.307Z,100787.53
2024-02-19T06:09:48.528Z,100790.16
2024-02-19T06:12:16.146Z,100790.06
2024-02-19T06:14:44.011Z,100809.81
2024-02-19T06:17:11.578Z,100800.34
2024-02-19T06:19:42.447Z,100804.34
2024-02-19T06:22:10.423Z,100800.06
2024-02-19T06:24:38.580Z,100809.06
2024-02-19T06:27:07.816Z,100812.19
2024-02-19T06:29:35.659Z,100813.59
2024-02-19T06:32:03.359Z,100823.97
2024-02-19T06:34:32.549Z,100811.31
2024-02-19T06:37:00.480Z,100824.72
2024-02-19T06:39:28.066Z,100819.16
2024-02-19T06:41:55.655Z,100825.03
2024-02-19T06:44:24.544Z,100825.34
2024-02-19T06:46:52.107Z,100834.38
2024-02-19T06:49:23.298Z,100839.09
2024-02-19T06:51:51.008Z,100834.59
2024-02-19T06:54:18.641Z,100842.78
2024-02-19T06:56:46.840Z,100836.97
2024-02-19T06:59:14.606Z,100841.84
2024-02-19T07:01:43.608Z,100844.34
2024-02-19T07:04:12.454Z,100850.72
2024-02-19T07:06:40.724Z,100849.34
2024-02-19T07:09:08.461Z,100862.16
2024-02-19T07:11:39.374Z,100862.78
2024-02-19T07:14:07.404Z,100871.66
2024-02-19T07:16:35.009Z,100875.53
2024-02-19T07:19:04.676Z,100875.22
2024-02-19T07:21:32.563Z,100878.44
2024-02-19T07:24:00.170Z,100879.19
2024-02-19T07:26:27.752Z,100890.06
2024-02-19T07:28:55.410Z,100884.50
2024-02-19T07:31:23.032Z,100883.75
2024-02-19T07:33:51.097Z,100897.09
2024-02-19T07:36:20.141Z,100897.72
2024-02-19T07:38:47.721Z,100897.84
2024-02-19T07:41:16.652Z,100899.81
2024-02-19T07:43:45.251Z,100908.81
2024-02-19T07:46:13.490Z,100912.75
2024-02-19T07:48:41.234Z,100924.22
2024-02-19T07:51:09.332Z,100927.38
2024-02-19T07:53:38.307Z,100932.72
2024-02-19T07:56:06.991Z,100923.69
2024-02-19T07:58:34.747Z,100934.94
2024-02-19T08:01:05.311Z,100939.84
2024-02-19T08:03:34.070Z,100940.28
2024-02-19T08:06:02.162Z,100942.78
2024-02-19T08:08:30.700Z,100938.25
2024-02-19T08:11:00.430Z,100941.44
2024-02-19T08:13:28.180Z,100954.13
2024-02-19T08:15:55.903Z,100946.19
2024-02-19T08:18:24.522Z,100956.47
2024-02-19T08:20:53.369Z,100955.78
2024-02-19T08:23:20.939Z,100957.97
2024-02-19T08:25:49.405Z,100959.00
2024-02-19T08:28:18.398Z,100959.91
2024-02-19T08:30:46.337Z,100964.19
2024-02-19T08:33:14.091Z,100966.72
2024-02-19T08:35:42.556Z,100961.41
2024-02-19T08:38:10.323Z,100966.97
2024-02-19T08:40:38.001Z,100971.06
2024-02-19T08:43:05.988Z,100968.72
2024-02-19T08:45:37.215Z,100968.53
2024-02-19T08:48:06.163Z,100970.72
2024-02-19T08:50:33.870Z,100973.25
2024-02-19T08:53:01.637Z,100978.03
2024-02-19T08:55:29.432Z,100973.84
2024-02-19T08:57:57.305Z,100977.03
2024-02-19T09:00:25.030Z,100989.06
2024-02-19T09:02:54.062Z,100974.91
2024-02-19T09:05:23.742Z,100979.25
2024-02-19T09:07:51.387Z,100992.03
2024-02-19T09:10:19.005Z,100972.72
2024-02-19T09:12:46.632Z,100987.72
2024-02-19T09:15:14.261Z,100974.22
2024-02-19T09:17:41.864Z,100976.94
2024-02-19T09:20:12.708Z,100979.66
2024-02-19T09:22:42.827Z,100981.78
2024-02-19T09:25:10.650Z,100984.81
2024-02-19T09:27:38.218Z,100984.16
2024-02-19T09:30:08.923Z,101001.41
2024-02-19T09:32:36.579Z,100997.09
2024-02-19T09:35:04.734Z,100998.97
2024-02-19T09:37:33.938Z,100993.59
2024-02-19T09:40:01.691Z,101006.72
2024-02-19T09:42:30.713Z,101007.91
2024-02-19T09:44:58.408Z,101016.31
2024-02-19T09:47:26.367Z,101008.44
2024-02-19T09:49:55.141Z,101017.59
2024-02-19T09:52:29.140Z,101002.53
2024-02-19T09:55:00.157Z,101014.25
2024-02-19T09:57:29.200Z,101012.84
2024-02-19T09:59:59.450Z,101024.03
2024-02-19T10:02:27.211Z,101027.81
2024-02-19T10:07:23.056Z,101033.13
2024-02-19T10:09:51.641Z,101029.59
2024-02-19T10:12:20.989Z,101037.94
2024-02-19T10:14:48.804Z,101042.59
2024-02-19T10:17:22.595Z,101041.81
2024-02-19T10:20:00.834Z,101036.38
2024-02-19T10:22:28.511Z,101027.41
2024-02-19T10:24:56.186Z,101025.88
2024-02-19T10:27:25.309Z,101036.31
2024-02-19T10:29:52.895Z,101021.63
2024-02-19T10:32:20.472Z,101026.25
2024-02-19T10:34:48.099Z,101023.31
2024-02-19T10:37:15.894Z,101021.63
2024-02-19T10:39:43.815Z,101016.50
2024-02-19T10:42:11.774Z,101017.78
2024-02-19T10:44:42.675Z,101023.31
2024-02-19T10:47:10.774Z,101014.47
2024-02-19T10:49:38.471Z,101013.41
2024-02-19T10:52:07.001Z,101024.47
2024-02-19T10:54:34.623Z,101024.41
2024-02-19T10:57:09.067Z,101025.06
2024-02-19T10:59:37.193Z,101028.06
2024-02-19T11:02:10.821Z,101021.59
2024-02-19T11:04:38.550Z,101011.81
2024-02-19T11:07:07.206Z,101012.78
2024-02-19T11:09:35.713Z,101003.59
2024-02-19T11:12:06.464Z,100998.47
2024-02-19T11:14:36.818Z,100992.09
2024-02-19T11:17:05.687Z,100987.09
2024-02-19T11:19:40.695Z,100986.38
2024-02-19T11:22:10.864Z,100979.94
2024-02-19T11:24:39.800Z,100977.84
2024-02-19T11:27:08.881Z,100978.69
2024-02-19T11:29:43.750Z,100970.97
2024-02-19T11:32:19.160Z,100966.16
2024-02-19T11:34:49.084Z,100970.97
2024-02-19T11:37:17.183Z,100950.53
2024-02-19T11:39:45.687Z,100955.47
2024-02-19T11:42:16.252Z,100945.44
2024-02-19T11:44:46.377Z,100948.00
2024-02-19T11:47:15.939Z,100940.97
2024-02-19T11:49:44.632Z,100940.38
2024-02-19T11:52:15.213Z,100940.13
2024-02-19T11:54:43.360Z,100940.41
2024-02-19T11:57:13.631Z,100926.63
2024-02-19T11:59:41.279Z,100928.41
2024-02-19T12:02:10.673Z,100929.09
2024-02-19T12:04:40.245Z,100922.34
2024-02-19T12:07:11.390Z,100914.47
2024-02-19T12:09:41.127Z,100922.06
2024-02-19T12:12:11.066Z,100915.75
2024-02-19T12:14:38.892Z,100915.19
2024-02-19T12:17:09.319Z,100907.31
2024-02-19T12:19:37.096Z,100903.00
2024-02-19T12:22:05.303Z,100900.88
2024-02-19T12:24:33.028Z,100899.97
2024-02-19T12:27:01.952Z,100893.03
2024-02-19T12:29:29.673Z,100891.56
2024-02-19T12:31:57.252Z,100888.16
2024-02-19T12:34:24.980Z,100887.91
2024-02-19T12:36:52.816Z,100892.59
2024-02-19T12:39:20.717Z,100889.44
2024-02-19T12:41:50.022Z,100881.28
2024-02-19T12:44:19.004Z,100878.47
2024-02-19T12:46:46.738Z,100879.38
2024-02-19T12:49:14.584Z,100888.28
2024-02-19T12:51:43.139Z,100888.94
2024-02-19T12:54:10.886Z,100882.50
2024-02-19T12:56:38.511Z,100885.78
2024-02-19T12:59:06.119Z,100877.25
2024-02-19T13:01:35.439Z,100878.75
2024-02-19T13:04:03.518Z,100881.00
2024-02-19T13:06:31.930Z,100878.09
2024-02-19T13:08:59.994Z,100881.28
2024-02-19T13:11:28.845Z,100865.38
2024-02-19T13:13:57.901Z,100861.56
2024-02-19T13:16:25.601Z,100861.19
2024-02-19T13:18:54.716Z,100871.91
2024-02-19T13:21:22.487Z,100861.13
2024-02-19T13:23:50.581Z,100863.78
2024-02-19T13:26:18.219Z,100875.00
2024-02-19T13:28:45.963Z,100860.28
2024-02-19T13:31:14.053Z,100874.97
2024-02-19T13:33:42.857Z,100874.41
2024-02-19T13:36:11.902Z,100870.78
2024-02-19T13:38:39.778Z,100867.28
2024-02-19T13:41:07.727Z,100864.19
2024-02-19T13:43:36.165Z,100867.16
2024-02-19T13:46:07.690Z,100856.53
2024-02-19T13:48:36.989Z,100855.34
2024-02-19T13:51:05.139Z,100860.06
2024-02-19T13:53:34.216Z,100854.63
2024-02-19T13:56:02.352Z,100851.72
2024-02-19T13:58:30.779Z,100843.88
2024-02-19T14:00:59.249Z,100844.56
2024-02-19T14:03:27.344Z,100848.69
2024-02-19T14:05:55.075Z,100847.28
2024-02-19T14:08:23.148Z,100842.25
2024-02-19T14:10:53.021Z,100830.81
2024-02-19T14:13:21.329Z,100840.19
2024-02-19T14:15:49.207Z,100834.72
2024-02-19T14:18:17.326Z,100848.66
2024-02-19T14:20:45.025Z,100838.88
2024-02-19T14:23:13.593Z,100838.34
2024-02-19T14:25:41.413Z,100844.22
2024-02-19T14:28:10.975Z,100844.81
2024-02-19T14:30:39.872Z,100842.88
2024-02-19T14:33:07.596Z,100838.47
2024-02-19T14:35:35.547Z,100837.44
2024-02-19T14:38:04.335Z,100834.31
2024-02-19T14:40:32.585Z,100830.97
2024-02-19T14:43:02.098Z,100832.63
2024-02-19T14:45:31.370Z,100821.88
2024-02-19T14:47:59.151Z,100824.09
2024-02-19T14:50:26.883Z,100828.16
2024-02-19T14:52:54.646Z,100826.06
2024-02-19T14:55:22.321Z,100833.00
2024-02-19T14:57:50.261Z,100832.47
2024-02-19T15:00:22.475Z,100833.50
2024-02-19T15:02:52.271Z,100841.63
2024-02-19T15:05:21.291Z,100838.31
2024-02-19T15:07:54.882Z,100849.19
2024-02-19T15:10:25.663Z,100836.56
2024-02-19T15:12:54.434Z,100838.03
2024-02-19T15:15:22.392Z,100832.25
2024-02-19T15:17:50.858Z,100819.94
2024-02-19T15:20:20.684Z,100824.50
2024-02-19T15:22:50.746Z,100819.16
2024-02-19T15:25:18.534Z,100815.19
2024-02-19T15:27:46.877Z,100806.50
2024-02-19T15:30:15.390Z,100806.41
2024-02-19T15:32:43.118Z,100803.34
2024-02-19T15:35:11.061Z,100807.81
2024-02-19T15:37:41.367Z,100804.44
2024-02-19T15:40:10.705Z,100799.41
2024-02-19T15:42:38.963Z,100796.44
2024-02-19T15:45:07.845Z,100799.44
2024-02-19T15:47:36.325Z,100797.75
2024-02-19T15:50:07.592Z,100796.13
2024-02-19T15:52:36.581Z,100799.78
2024-02-19T15:55:06.776Z,100803.28
2024-02-19T15:57:34.749Z,100818.50
2024-02-19T16:00:07.476Z,100821.44
2024-02-19T16:02:39.944Z,100814.16
2024-02-19T16:05:08.847Z,100817.56
2024-02-19T16:07:36.804Z,100804.81
2024-02-19T16:10:09.453Z,100809.84
2024-02-19T16:12:37.130Z,100795.22
2024-02-19T16:15:07.963Z,100800.53
2024-02-19T16:17:35.604Z,100795.19
2024-02-19T16:20:04.313Z,100791.91
2024-02-19T16:22:32.191Z,100793.97
2024-02-19T16:25:00.366Z,100788.59
2024-02-19T16:27:29.739Z,100780.13
2024-02-19T16:29:57.392Z,100788.06
2024-02-19T16:32:24.964Z,100791.53
2024-02-19T16:34:52.623Z,100778.81
2024-02-19T16:37:20.316Z,100777.34
2024-02-19T16:39:49.492Z,100789.22
2024-02-19T16:42:18.118Z,100779.03
2024-02-19T16:44:47.341Z,100787.13
2024-02-19T16:47:15.051Z,100780.97
2024-02-19T16:49:44.764Z,100778.91
2024-02-19T16:52:13.469Z,100774.47
2024-02-19T16:54:41.246Z,100785.44
2024-02-19T16:57:08.825Z,100781.63
2024-02-19T16:59:37.493Z,100777.63
2024-02-19T17:02:06.623Z,100772.63
2024-02-19T17:04:34.352Z,100771.59
2024-02-19T17:07:04.345Z,100763.09
2024-02-19T17:09:35.068Z,100771.75
2024-02-19T17:12:02.793Z,100773.16
2024-02-19T17:14:30.349Z,100773.47
2024-02-19T17:16:59.773Z,100770.66
2024-02-19T17:19:28.807Z,100768.75
2024-02-19T17:21:56.527Z,100776.16
2024-02-19T17:24:24.332Z,100773.66
2024-02-19T17:26:52.260Z,100772.81
2024-02-19T17:29:19.812Z,100769.50
2024-02-19T17:31:50.182Z,100767.94
2024-02-19T17:34:18.685Z,100762.16
2024-02-19T17:36:47.933Z,100762.38
2024-02-19T17:39:15.569Z,100752.03
2024-02-19T17:41:43.164Z,100752.88
2024-02-19T17:44:11.186Z,100750.66
2024-02-19T17:46:38.825Z,100746.72
2024-02-19T17:49:09.503Z,100743.59
2024-02-19T17:51:37.440Z,100754.44
2024-02-19T17:54:07.919Z,100755.06
2024-02-19T17:56:35.507Z,100764.66
2024-02-19T17:59:03.228Z,100761.97
2024-02-19T18:01:30.912Z,100763.03
2024-02-19T18:03:58.632Z,100773.56
2024-02-19T18:06:26.260Z,100762.75
2024-02-19T18:08:53.888Z,100759.44
2024-02-19T18:11:22.883Z,100766.31
2024-02-19T18:13:50.844Z,100751.88
2024-02-19T18:16:18.466Z,100760.31
2024-02-19T18:18:46.357Z,100749.38
2024-02-19T18:21:14.319Z,100763.88
2024-02-19T18:23:42.178Z,100758.25
2024-02-19T18:26:09.908Z,100763.63
2024-02-19T18:28:38.888Z,100758.47
2024-02-19T18:31:11.338Z,100759.09
2024-02-19T18:33:39.393Z,100759.47
2024-02-19T18:36:07.708Z,100745.78
2024-02-19T18:38:38.385Z,100753.03
2024-02-19T18:41:06.168Z,100763.38
2024-02-19T18:43:33.861Z,100751.41
2024-02-19T18:46:03.005Z,100762.59
2024-02-19T18:48:31.853Z,100753.16
2024-02-19T18:50:59.875Z,100757.44
2024-02-19T18:53:27.832Z,100757.72
2024-02-19T18:56:01.339Z,100757.56
2024-02-19T18:58:30.401Z,100752.31
2024-02-19T19:00:59.136Z,100760.88
2024-02-19T19:03:28.953Z,100757.50
2024-02-19T19:05:59.765Z,100755.22
2024-02-19T19:08:27.763Z,100752.25
2024-02-19T19:10:55.566Z,100752.53
2024-02-19T19:13:23.960Z,100745.16
2024-02-19T19:15:51.722Z,100747.38
2024-02-19T19:18:20.147Z,100741.72
2024-02-19T19:20:49.129Z,100736.69
2024-02-19T19:23:16.946Z,100740.09
2024-02-19T19:25:44.554Z,100731.22
2024-02-19T19:28:12.284Z,100733.69
2024-02-19T19:30:39.881Z,100733.13
2024-02-19T19:33:07.516Z,100723.47
2024-02-19T19:35:37.311Z,100720.34
2024-02-19T19:38:06.884Z,100725.00
2024-02-19T19:40:34.448Z,100714.38
2024-02-19T19:43:02.212Z,100721.34
2024-02-19T19:45:29.844Z,100709.78
2024-02-19T19:47:57.496Z,100708.72
2024-02-19T19:50:25.156Z,100722.59
2024-02-19T19:52:52.761Z,100701.06
2024-02-19T19:55:21.740Z,100701.06
2024-02-19T19:57:52.888Z,100702.13
2024-02-19T20:00:20.844Z,100707.31
2024-02-19T20:02:48.431Z,100695.00
2024-02-19T20:05:16.173Z,100700.63
2024-02-19T20:07:44.111Z,100688.31
2024-02-19T20:10:14.904Z,100695.66
2024-02-19T20:12:44.007Z,100697.31
2024-02-19T20:15:11.990Z,100690.06
2024-02-19T20:17:39.601Z,100699.75
2024-02-19T20:20:09.059Z,100698.25
2024-02-19T20:22:36.726Z,100705.09
2024-02-19T20:25:05.224Z,100695.22
2024-02-19T20:27:32.854Z,100703.25
2024-02-19T20:30:01.941Z,100708.59
2024-02-19T20:32:29.760Z,100705.97
2024-02-19T20:34:57.455Z,100707.31
2024-02-19T20:37:25.153Z,100707.06
2024-02-19T20:39:52.804Z,100700.91
2024-02-19T20:42:20.406Z,100697.94
2024-02-19T20:44:48.020Z,100696.75
2024-02-19T20:47:18.590Z,100703.13
2024-02-19T20:49:47.810Z,100700.50
2024-02-19T20:52:15.681Z,100711.06
2024-02-19T20:54:43.370Z,100702.09
2024-02-19T20:57:12.436Z,100710.31
2024-02-19T20:59:40.086Z,100706.91
2024-02-19T21:02:08.009Z,100716.50
2024-02-19T21:04:37.861Z,100715.19
2024-02-19T21:07:06.260Z,100716.38
2024-02-19T21:09:36.116Z,100716.38
2024-02-19T21:12:03.719Z,100715.06
2024-02-19T21:14:31.513Z,100721.38
2024-02-19T21:16:59.390Z,100714.59
2024-02-19T21:19:27.100Z,100725.88
2024-02-19T21:21:56.094Z,100721.69
2024-02-19T21:24:24.964Z,100713.84
2024-02-19T21:26:52.626Z,100713.00
2024-02-19T21:29:20.266Z,100711.56
2024-02-19T21:31:47.913Z,100706.03
2024-02-19T21:34:16.064Z,100712.72
2024-02-19T21:36:43.823Z,100706.66
2024-02-19T21:39:12.784Z,100708.53
2024-02-19T21:41:40.722Z,100713.47
2024-02-19T21:44:08.377Z,100714.91
2024-02-19T21:46:37.229Z,100709.81
2024-02-19T21:49:05.146Z,100708.03
2024-02-19T21:51:32.912Z,100697.88
2024-02-19T21:54:00.494Z,100708.75
2024-02-19T21:56:29.412Z,100711.47
2024-02-19T21:58:56.986Z,100705.63
2024-02-19T22:01:24.687Z,100704.25
2024-02-19T22:03:52.494Z,100700.41
2024-02-19T22:06:20.264Z,100695.94
2024-02-19T22:08:47.863Z,100691.94
2024-02-19T22:11:20.472Z,100703.94
2024-02-19T22:13:50.575Z,100692.94
2024-02-19T22:16:18.244Z,100697.31
2024-02-19T22:18:45.887Z,100706.19
2024-02-19T22:21:13.492Z,100692.31
2024-02-19T22:23:41.227Z,100692.38
2024-02-19T22:26:09.540Z,100684.75
2024-02-19T22:28:37.251Z,100690.16
2024-02-19T22:31:07.272Z,100692.38
2024-02-19T22:33:35.036Z,100682.34
2024-02-19T22:36:02.605Z,100686.13
2024-02-19T22:38:30.230Z,100681.38
2024-02-19T22:40:58.166Z,100688.66
2024-02-19T22:43:27.487Z,100689.53
2024-02-19T22:45:55.375Z,100683.47
2024-02-19T22:48:24.503Z,100691.78
2024-02-19T22:50:52.192Z,100689.34
2024-02-19T22:53:19.758Z,100684.41
2024-02-19T22:55:47.402Z,100684.03
2024-02-19T22:58:28.731Z,100687.69
2024-02-19T23:00:59.676Z,100673.94
2024-02-19T23:03:28.908Z,100684.13
2024-02-19T23:05:56.771Z,100675.06
2024-02-19T23:08:24.612Z,100676.97
2024-02-19T23:10:53.079Z,100682.34
2024-02-19T23:13:21.085Z,100680.38
2024-02-19T23:15:49.250Z,100677.88
2024-02-19T23:18:17.033Z,100686.66
2024-02-19T23:20:46.094Z,100685.66
2024-02-19T23:23:13.707Z,100687.91
2024-02-19T23:25:41.773Z,100682.41
2024-02-19T23:28:09.491Z,100687.94
2024-02-19T23:30:37.243Z,100690.53
2024-02-19T23:33:05.247Z,100697.91
2024-02-19T23:35:34.160Z,100697.78
2024-02-19T23:38:04.501Z,100696.78
2024-02-19T23:40:32.289Z,100708.31
2024-02-19T23:43:00.282Z,100702.34
2024-02-19T23:45:28.377Z,100705.09
2024-02-19T23:47:56.054Z,100714.94
2024-02-19T23:50:23.907Z,100714.84
2024-02-19T23:52:51.514Z,100713.28
2024-02-19T23:55:20.483Z,100720.53
2024-02-19T23:57:48.181Z,100704.34
